Hauptseite
METAR-TAF:

METAR-TAF

Flughäfen :

Penn Yan Airport

Penn Yan, New York, Vereinigte Staaten

Breite: 42-38-35N, Länge: 077-02-58W, Höhe: 275 m

Beobachtung

Neuester Wetterbericht von vor 12 Minuten, um 04:53 UTC
Wind 11 kt aus Süd/Südwest
Temperatur -5°C
Luftfeuchtigkeit 58%
Luftdruck 1013 hPa
Sichtweite: 16.1 km
Himmel klar

METAR: KPEO 210453Z AUTO 21011KT 10SM CLR M05/M12 A2990 RMK AO2 SLP139 T10501117 410111061

Zeit: 00:05 (05:05 UTC)


TAF: fehlend

Wetterbeobachtungen und Prognosen von mehr als 4000 Flughäfen (METAR und TAF Bericht).

Die verfügbaren Stationen werden durch gelbe und rote Markierungen auf der Karte dargestellt.

Führen Sie die Maus auf sie, um den Namen der Station zu sehen.

Darauf klicken, um die Beobachtung von Wetterbeobachtungen und Prognosen zu sehen.

Um die Karte zu ändern : klicken Sie auf den grünen Tasten mit einem schwarzen Kreuz Zum Vergrößern, auf den grünen Button mit einem Gedankenstrich zu verkleinern, oder auf die grünen Pfeile für benachbarte Karten.


METAR-TAF: